createdAt,value
2017-01-02T00:00:33.940Z,0
2017-01-02T00:01:33.914Z,0
2017-01-02T00:02:33.901Z,0
2017-01-02T00:03:33.878Z,0
2017-01-02T00:04:33.854Z,0
2017-01-02T00:05:33.838Z,0
2017-01-02T00:06:33.820Z,0
2017-01-02T00:07:33.799Z,0
2017-01-02T00:08:33.777Z,0
2017-01-02T00:09:33.754Z,0
2017-01-02T00:10:33.882Z,0
2017-01-02T00:11:33.715Z,0
2017-01-02T00:12:33.695Z,0
2017-01-02T00:13:33.678Z,0
2017-01-02T00:14:33.649Z,0
2017-01-02T00:15:33.639Z,0
2017-01-02T00:16:33.644Z,0
2017-01-02T00:17:33.599Z,0
2017-01-02T00:18:33.567Z,0
2017-01-02T00:19:33.554Z,0
2017-01-02T00:20:33.681Z,0
2017-01-02T00:21:33.516Z,0
2017-01-02T00:22:33.483Z,0
2017-01-02T00:23:33.476Z,0
2017-01-02T00:24:33.453Z,0
2017-01-02T00:25:33.459Z,0
2017-01-02T00:26:33.416Z,0
2017-01-02T00:27:33.388Z,0
2017-01-02T00:28:33.370Z,0
2017-01-02T00:29:33.346Z,0
2017-01-02T00:30:33.340Z,0
2017-01-02T00:31:33.313Z,0
2017-01-02T00:32:33.292Z,0
2017-01-02T00:33:33.277Z,0
2017-01-02T00:34:33.247Z,0
2017-01-02T00:35:33.223Z,0
2017-01-02T00:36:33.208Z,0
2017-01-02T00:37:33.201Z,0
2017-01-02T00:38:33.170Z,0
2017-01-02T00:39:33.153Z,0
2017-01-02T00:40:33.123Z,0
2017-01-02T00:41:33.096Z,0
2017-01-02T00:42:33.075Z,0
2017-01-02T00:43:33.061Z,0
2017-01-02T00:44:33.034Z,0
2017-01-02T00:45:33.025Z,0
2017-01-02T00:46:33.007Z,0
2017-01-02T00:47:32.975Z,0
2017-01-02T00:48:32.962Z,0
2017-01-02T00:49:32.944Z,0
2017-01-02T00:50:32.955Z,0
2017-01-02T00:51:32.904Z,0
2017-01-02T00:52:32.888Z,0
2017-01-02T00:53:32.885Z,0
2017-01-02T00:54:32.834Z,0
2017-01-02T00:55:32.808Z,0
2017-01-02T00:56:32.806Z,0
2017-01-02T00:57:32.783Z,0
2017-01-02T00:58:32.800Z,0
2017-01-02T00:59:32.752Z,0
2017-01-02T01:00:32.730Z,0
2017-01-02T01:01:32.694Z,0
2017-01-02T01:02:32.680Z,0
2017-01-02T01:03:32.662Z,0
2017-01-02T01:04:32.637Z,0
2017-01-02T01:05:32.618Z,0
2017-01-02T01:06:32.799Z,0
2017-01-02T01:07:32.573Z,0
2017-01-02T01:08:32.554Z,0
2017-01-02T01:09:32.554Z,0
2017-01-02T01:10:32.512Z,0
2017-01-02T01:11:32.494Z,0
2017-01-02T01:12:32.481Z,0
2017-01-02T01:13:32.480Z,0
2017-01-02T01:14:32.435Z,0
2017-01-02T01:15:32.409Z,0
2017-01-02T01:16:32.386Z,0
2017-01-02T01:17:32.376Z,0
2017-01-02T01:18:32.359Z,0
2017-01-02T01:19:32.338Z,0
2017-01-02T01:20:32.342Z,0
2017-01-02T01:21:32.291Z,0
2017-01-02T01:22:32.273Z,0
2017-01-02T01:23:32.271Z,0
2017-01-02T01:24:32.235Z,0
2017-01-02T01:25:32.199Z,0
2017-01-02T01:26:32.177Z,0
2017-01-02T01:27:32.170Z,0
2017-01-02T01:28:32.148Z,0
2017-01-02T01:29:32.132Z,0
2017-01-02T01:30:32.106Z,0
2017-01-02T01:31:32.085Z,0
2017-01-02T01:32:32.100Z,0
2017-01-02T01:33:32.048Z,0
2017-01-02T01:34:32.023Z,0
2017-01-02T01:35:31.998Z,0
2017-01-02T01:36:31.983Z,0
2017-01-02T01:37:31.964Z,0
2017-01-02T01:38:31.924Z,0
2017-01-02T01:39:31.916Z,0
2017-01-02T01:40:31.898Z,0
2017-01-02T01:41:31.888Z,0
2017-01-02T01:42:31.842Z,0
2017-01-02T01:43:31.833Z,0
2017-01-02T01:44:31.807Z,0
2017-01-02T01:45:31.786Z,0
2017-01-02T01:46:31.782Z,0
2017-01-02T01:47:31.753Z,0
2017-01-02T01:48:31.729Z,0
2017-01-02T01:49:31.707Z,0
2017-01-02T01:50:31.676Z,0
2017-01-02T01:51:31.668Z,0
2017-01-02T01:52:31.637Z,0
2017-01-02T01:53:31.634Z,0
2017-01-02T01:54:31.606Z,0
2017-01-02T01:55:31.566Z,0
2017-01-02T01:56:31.562Z,0
2017-01-02T01:57:31.740Z,0
2017-01-02T01:58:31.506Z,0
2017-01-02T01:59:31.500Z,0
2017-01-02T02:00:31.474Z,0
2017-01-02T02:01:31.463Z,0
2017-01-02T02:02:31.432Z,0
2017-01-02T02:03:31.408Z,0
2017-01-02T02:04:31.380Z,0
2017-01-02T02:05:31.374Z,0
2017-01-02T02:06:31.352Z,0
2017-01-02T02:07:31.329Z,0
2017-01-02T02:08:31.307Z,0
2017-01-02T02:09:31.286Z,0
2017-01-02T02:10:31.264Z,0
2017-01-02T02:11:31.249Z,0
2017-01-02T02:12:31.240Z,0
2017-01-02T02:13:31.213Z,0
2017-01-02T02:14:31.179Z,0
2017-01-02T02:15:31.171Z,0
2017-01-02T02:16:31.147Z,0
2017-01-02T02:17:31.129Z,0
2017-01-02T02:18:31.096Z,0
2017-01-02T02:19:31.081Z,0
2017-01-02T02:20:31.054Z,0
2017-01-02T02:21:31.028Z,0
2017-01-02T02:22:31.009Z,0
2017-01-02T02:23:31.007Z,0
2017-01-02T02:24:30.973Z,0
2017-01-02T02:25:30.953Z,0
2017-01-02T02:26:30.931Z,0
2017-01-02T02:27:30.891Z,0
2017-01-02T02:28:30.871Z,0
2017-01-02T02:29:30.867Z,0
2017-01-02T02:30:30.829Z,0
2017-01-02T02:31:30.814Z,0
2017-01-02T02:32:30.824Z,0
2017-01-02T02:33:30.772Z,0
2017-01-02T02:34:30.763Z,0
2017-01-02T02:35:30.739Z,0
2017-01-02T02:36:30.712Z,0
2017-01-02T02:37:30.722Z,0
2017-01-02T02:38:30.673Z,0
2017-01-02T02:39:30.650Z,0
2017-01-02T02:40:30.640Z,0
2017-01-02T02:41:30.605Z,0
2017-01-02T02:42:30.584Z,0
2017-01-02T02:43:30.559Z,0
2017-01-02T02:44:30.527Z,0
2017-01-02T02:45:30.515Z,0
2017-01-02T02:46:30.488Z,0
2017-01-02T02:47:30.481Z,0
2017-01-02T02:48:30.456Z,0
2017-01-02T02:49:30.438Z,0
2017-01-02T02:50:30.412Z,0
2017-01-02T02:51:30.388Z,0
2017-01-02T02:52:30.381Z,0
2017-01-02T02:53:30.345Z,0
2017-01-02T02:54:30.331Z,0
2017-01-02T02:55:30.292Z,0
2017-01-02T02:56:30.293Z,0
2017-01-02T02:57:30.273Z,0
2017-01-02T02:58:30.281Z,0
2017-01-02T02:59:30.215Z,0
2017-01-02T03:00:30.199Z,0
2017-01-02T03:01:30.171Z,0
2017-01-02T03:02:30.547Z,0
2017-01-02T03:03:30.135Z,0
2017-01-02T03:04:30.101Z,0
2017-01-02T03:05:30.080Z,0
2017-01-02T03:06:30.056Z,0
2017-01-02T03:07:30.058Z,0
2017-01-02T03:08:30.018Z,0
2017-01-02T03:09:30.004Z,0
2017-01-02T03:10:29.988Z,0
2017-01-02T03:11:29.955Z,0
2017-01-02T03:12:29.942Z,0
2017-01-02T03:13:29.925Z,0
2017-01-02T03:14:29.894Z,0
2017-01-02T03:15:29.862Z,0
2017-01-02T03:16:29.853Z,0
2017-01-02T03:17:29.835Z,0
2017-01-02T03:18:29.814Z,0
2017-01-02T03:19:29.794Z,0
2017-01-02T03:20:29.762Z,0
2017-01-02T03:21:29.745Z,0
2017-01-02T03:22:29.722Z,0
2017-01-02T03:23:29.704Z,0
2017-01-02T03:24:29.665Z,0
2017-01-02T03:25:29.649Z,0
2017-01-02T03:26:29.623Z,0
2017-01-02T03:27:29.607Z,0
2017-01-02T03:28:29.582Z,0
2017-01-02T03:29:29.561Z,0
2017-01-02T03:30:29.562Z,0
2017-01-02T03:31:29.524Z,0
2017-01-02T03:32:29.508Z,0
2017-01-02T03:33:29.488Z,0
2017-01-02T03:34:29.464Z,0
2017-01-02T03:35:29.443Z,0
2017-01-02T03:36:29.416Z,0
2017-01-02T03:37:29.407Z,0
2017-01-02T03:38:29.376Z,0
2017-01-02T03:39:29.347Z,0
2017-01-02T03:40:29.327Z,0
2017-01-02T03:41:29.301Z,0
2017-01-02T03:42:29.290Z,0
2017-01-02T03:43:29.255Z,0
2017-01-02T03:44:29.242Z,0
2017-01-02T03:45:29.224Z,0
2017-01-02T03:46:29.200Z,0
2017-01-02T03:47:29.183Z,0
2017-01-02T03:48:29.169Z,0
2017-01-02T03:49:29.148Z,0
2017-01-02T03:50:29.105Z,0
2017-01-02T03:51:29.099Z,0
2017-01-02T03:52:29.075Z,0
2017-01-02T03:53:29.066Z,0
2017-01-02T03:54:29.027Z,0
2017-01-02T03:55:29.009Z,0
2017-01-02T03:56:28.989Z,0
2017-01-02T03:57:28.963Z,0
2017-01-02T03:58:28.933Z,0
2017-01-02T03:59:28.910Z,0
2017-01-02T04:00:28.907Z,0
2017-01-02T04:01:28.869Z,0
2017-01-02T04:02:28.854Z,0
2017-01-02T04:03:28.827Z,0
2017-01-02T04:04:28.811Z,0
2017-01-02T04:05:28.798Z,0
2017-01-02T04:06:28.754Z,0
2017-01-02T04:07:28.749Z,0
2017-01-02T04:08:28.722Z,0
2017-01-02T04:09:28.696Z,0
2017-01-02T04:10:28.689Z,0
2017-01-02T04:11:28.664Z,0
2017-01-02T04:12:28.631Z,0
2017-01-02T04:13:28.619Z,0
2017-01-02T04:14:28.589Z,0
2017-01-02T04:15:28.582Z,0
2017-01-02T04:16:28.540Z,0
2017-01-02T04:17:28.525Z,0
2017-01-02T04:18:28.516Z,0
2017-01-02T04:19:28.517Z,0
2017-01-02T04:20:28.463Z,0
2017-01-02T04:21:28.436Z,0
2017-01-02T04:22:28.422Z,0
2017-01-02T04:23:28.405Z,0
2017-01-02T04:24:28.382Z,0
2017-01-02T04:25:28.361Z,0
2017-01-02T04:26:28.329Z,0
2017-01-02T04:27:28.323Z,0
2017-01-02T04:28:28.288Z,0
2017-01-02T04:29:28.265Z,0
2017-01-02T04:30:28.240Z,0
2017-01-02T04:31:28.233Z,0
2017-01-02T04:32:28.201Z,0
2017-01-02T04:33:28.174Z,0
2017-01-02T04:34:28.151Z,0
2017-01-02T04:35:28.139Z,0
2017-01-02T04:36:28.108Z,0
2017-01-02T04:37:28.088Z,0
2017-01-02T04:38:28.059Z,0
2017-01-02T04:39:28.037Z,0
2017-01-02T04:40:28.012Z,0
2017-01-02T04:41:27.997Z,0
2017-01-02T04:42:27.993Z,0
2017-01-02T04:43:27.945Z,0
2017-01-02T04:44:27.935Z,0
2017-01-02T04:45:27.911Z,0
2017-01-02T04:46:27.887Z,0
2017-01-02T04:47:27.877Z,0
2017-01-02T04:48:27.844Z,0
2017-01-02T04:49:27.818Z,0
2017-01-02T04:50:27.805Z,0
2017-01-02T04:51:27.773Z,0
2017-01-02T04:52:27.758Z,0
2017-01-02T04:53:27.728Z,0
2017-01-02T04:54:27.707Z,0
2017-01-02T04:55:27.690Z,0
2017-01-02T04:56:27.675Z,0
2017-01-02T04:57:27.646Z,0
2017-01-02T04:58:27.613Z,0
2017-01-02T04:59:27.594Z,0
2017-01-02T05:00:27.586Z,0
2017-01-02T05:01:27.555Z,0
2017-01-02T05:02:27.544Z,0
2017-01-02T05:03:27.505Z,0
2017-01-02T05:04:27.502Z,0
2017-01-02T05:05:27.468Z,0
2017-01-02T05:06:27.461Z,0
2017-01-02T05:07:27.436Z,0
2017-01-02T05:08:27.394Z,0
2017-01-02T05:09:27.391Z,0
2017-01-02T05:10:27.359Z,0
2017-01-02T05:11:27.342Z,0
2017-01-02T05:12:27.307Z,0
2017-01-02T05:13:27.287Z,0
2017-01-02T05:14:27.263Z,0
2017-01-02T05:15:27.243Z,0
2017-01-02T05:16:27.242Z,0
2017-01-02T05:17:27.199Z,0
2017-01-02T05:18:27.195Z,0
2017-01-02T05:19:27.165Z,0
2017-01-02T05:20:27.149Z,0
2017-01-02T05:21:27.113Z,0
2017-01-02T05:22:27.094Z,0
2017-01-02T05:23:27.078Z,0
2017-01-02T05:24:27.064Z,0
2017-01-02T05:25:27.024Z,0
2017-01-02T05:26:27.010Z,0
2017-01-02T05:27:26.986Z,0
2017-01-02T05:28:26.963Z,0
2017-01-02T05:29:26.941Z,0
2017-01-02T05:30:26.909Z,0
2017-01-02T05:31:26.902Z,0
2017-01-02T05:32:26.876Z,0
2017-01-02T05:33:26.846Z,0
2017-01-02T05:34:26.833Z,0
2017-01-02T05:35:26.801Z,0
2017-01-02T05:36:26.793Z,0
2017-01-02T05:37:26.771Z,0
2017-01-02T05:38:26.739Z,0
2017-01-02T05:39:26.726Z,0
2017-01-02T05:40:26.694Z,0
2017-01-02T05:41:26.681Z,0
2017-01-02T05:42:26.658Z,0
2017-01-02T05:43:26.636Z,0
2017-01-02T05:44:26.604Z,0
2017-01-02T05:45:26.591Z,0
2017-01-02T05:46:26.561Z,0
2017-01-02T05:47:26.558Z,0
2017-01-02T05:48:26.517Z,0
2017-01-02T05:49:26.500Z,0
2017-01-02T05:50:26.484Z,0
2017-01-02T05:51:26.455Z,0
2017-01-02T05:52:26.810Z,0
2017-01-02T05:53:26.423Z,0
2017-01-02T05:54:26.389Z,0
2017-01-02T05:55:26.376Z,0
2017-01-02T05:56:26.726Z,0
2017-01-02T05:57:26.326Z,0
2017-01-02T05:58:26.296Z,0
2017-01-02T05:59:26.271Z,0
2017-01-02T06:00:26.262Z,0
2017-01-02T06:01:26.232Z,0
2017-01-02T06:02:26.207Z,0
2017-01-02T06:03:26.190Z,0
2017-01-02T06:04:26.163Z,0
2017-01-02T06:05:26.131Z,0
2017-01-02T06:06:26.116Z,0
2017-01-02T06:07:26.099Z,0
2017-01-02T06:08:26.073Z,0
2017-01-02T06:09:26.046Z,0
2017-01-02T06:10:26.024Z,0
2017-01-02T06:11:25.992Z,0
2017-01-02T06:12:25.993Z,0
2017-01-02T06:13:25.959Z,0
2017-01-02T06:14:25.936Z,0
2017-01-02T06:15:25.919Z,0
2017-01-02T06:16:25.892Z,0
2017-01-02T06:17:25.858Z,0
2017-01-02T06:18:25.851Z,0
2017-01-02T06:19:25.844Z,0
2017-01-02T06:20:25.803Z,0
2017-01-02T06:21:25.774Z,0
2017-01-02T06:22:25.771Z,4
2017-01-02T06:23:25.728Z,4
2017-01-02T06:24:25.713Z,0
2017-01-02T06:25:25.694Z,0
2017-01-02T06:26:25.674Z,4
2017-01-02T06:27:25.653Z,0
2017-01-02T06:28:25.621Z,4
2017-01-02T06:29:25.593Z,4
2017-01-02T06:30:25.580Z,8
2017-01-02T06:31:25.550Z,8
2017-01-02T06:32:25.528Z,8
2017-01-02T06:33:25.522Z,8
2017-01-02T06:34:25.483Z,12
2017-01-02T06:35:25.462Z,12
2017-01-02T06:36:25.443Z,16
2017-01-02T06:37:25.421Z,16
2017-01-02T06:38:25.393Z,24
2017-01-02T06:39:25.371Z,28
2017-01-02T06:40:25.338Z,32
2017-01-02T06:41:25.325Z,40
2017-01-02T06:42:25.317Z,44
2017-01-02T06:43:25.280Z,52
2017-01-02T06:44:25.257Z,64
2017-01-02T06:45:25.251Z,72
2017-01-02T06:46:25.203Z,88
2017-01-02T06:47:25.177Z,100
2017-01-02T06:48:25.170Z,116
2017-01-02T06:49:25.130Z,136
2017-01-02T06:50:25.115Z,156
2017-01-02T06:51:25.483Z,176
2017-01-02T06:52:25.089Z,200
2017-01-02T06:53:25.047Z,228
2017-01-02T06:54:25.029Z,256
2017-01-02T06:55:25.009Z,284
2017-01-02T06:56:24.977Z,316
2017-01-02T06:57:24.963Z,348
2017-01-02T06:58:24.928Z,388
2017-01-02T06:59:24.914Z,428
2017-01-02T07:00:24.899Z,472
2017-01-02T07:01:24.870Z,520
2017-01-02T07:02:25.238Z,560
2017-01-02T07:03:24.827Z,608
2017-01-02T07:04:24.812Z,656
2017-01-02T07:05:24.762Z,724
2017-01-02T07:06:24.757Z,824
2017-01-02T07:07:24.739Z,924
2017-01-02T07:08:24.715Z,1028
2017-01-02T07:09:24.680Z,1112
2017-01-02T07:10:24.663Z,1196
2017-01-02T07:11:24.648Z,1272
2017-01-02T07:12:24.610Z,1352
2017-01-02T07:13:24.584Z,1436
2017-01-02T07:14:24.581Z,1528
2017-01-02T07:15:24.541Z,1612
2017-01-02T07:16:24.519Z,1700
2017-01-02T07:17:24.502Z,1800
2017-01-02T07:18:24.473Z,1896
2017-01-02T07:19:24.451Z,1996
2017-01-02T07:20:24.429Z,2096
2017-01-02T07:21:24.407Z,2204
2017-01-02T07:22:24.404Z,2312
2017-01-02T07:23:24.368Z,2416
2017-01-02T07:24:24.356Z,2528
2017-01-02T07:25:24.317Z,2628
2017-01-02T07:26:24.309Z,2724
2017-01-02T07:27:24.281Z,2820
2017-01-02T07:28:24.259Z,2920
2017-01-02T07:29:24.223Z,3008
2017-01-02T07:30:24.206Z,3100
2017-01-02T07:31:24.183Z,3180
2017-01-02T07:32:24.169Z,3276
2017-01-02T07:33:24.148Z,3368
2017-01-02T07:34:24.152Z,3448
2017-01-02T07:35:24.102Z,3536
2017-01-02T07:36:24.077Z,3636
2017-01-02T07:37:24.053Z,3796
2017-01-02T07:38:24.030Z,3892
2017-01-02T07:39:24.000Z,4120
2017-01-02T07:40:23.988Z,4064
2017-01-02T07:41:23.969Z,4160
2017-01-02T07:42:23.941Z,4292
2017-01-02T07:43:23.903Z,4692
2017-01-02T07:44:23.895Z,4488
2017-01-02T07:45:23.866Z,4592
2017-01-02T07:46:23.844Z,4748
2017-01-02T07:47:23.830Z,4796
2017-01-02T07:48:23.799Z,4916
2017-01-02T07:49:23.776Z,5156
2017-01-02T07:50:23.761Z,5272
2017-01-02T07:51:23.721Z,5620
2017-01-02T07:52:23.706Z,5748
2017-01-02T07:53:23.683Z,5728
2017-01-02T07:54:23.656Z,5456
2017-01-02T07:55:23.653Z,5740
2017-01-02T07:56:23.629Z,5876
2017-01-02T07:57:23.606Z,5892
2017-01-02T07:58:23.575Z,6112
2017-01-02T07:59:23.555Z,6800
2017-01-02T08:00:23.536Z,6976
2017-01-02T08:01:23.509Z,6800
2017-01-02T08:02:23.492Z,6688
2017-01-02T08:03:23.457Z,6648
2017-01-02T08:04:23.445Z,7152
2017-01-02T08:05:23.417Z,7452
2017-01-02T08:06:23.391Z,7728
2017-01-02T08:07:23.384Z,7776
2017-01-02T08:08:23.349Z,7716
2017-01-02T08:09:23.340Z,7792
2017-01-02T08:10:23.302Z,7744
2017-01-02T08:11:23.288Z,7808
2017-01-02T08:12:23.272Z,8216
2017-01-02T08:13:23.245Z,8688
2017-01-02T08:14:23.225Z,8608
2017-01-02T08:15:23.201Z,8600
2017-01-02T08:16:23.165Z,8512
2017-01-02T08:17:23.152Z,8736
2017-01-02T08:18:23.120Z,9004
2017-01-02T08:19:23.107Z,9040
2017-01-02T08:20:23.107Z,9464
2017-01-02T08:21:23.057Z,9536
2017-01-02T08:22:23.041Z,9776
2017-01-02T08:23:23.033Z,9620
2017-01-02T08:24:23.002Z,10076
2017-01-02T08:25:23.006Z,10700
2017-01-02T08:26:22.970Z,11124
2017-01-02T08:27:22.933Z,11988
2017-01-02T08:28:22.906Z,12056
2017-01-02T08:29:22.896Z,12056
2017-01-02T08:30:22.880Z,12592
2017-01-02T08:31:22.857Z,12892
2017-01-02T08:32:22.828Z,13692
2017-01-02T08:33:22.814Z,14384
2017-01-02T08:34:22.786Z,13496
2017-01-02T08:35:22.759Z,12656
2017-01-02T08:36:22.746Z,13048
2017-01-02T08:37:22.714Z,13060
2017-01-02T08:38:22.698Z,13092
2017-01-02T08:39:22.708Z,13660
2017-01-02T08:40:22.653Z,13508
2017-01-02T08:41:22.640Z,13600
2017-01-02T08:42:22.620Z,13812
2017-01-02T08:43:22.583Z,14084
2017-01-02T08:44:22.577Z,14888
2017-01-02T08:45:22.553Z,15872
2017-01-02T08:46:22.530Z,15296
2017-01-02T08:47:22.512Z,15040
2017-01-02T08:48:22.493Z,14548
2017-01-02T08:49:22.464Z,13692
2017-01-02T08:50:22.457Z,12744
2017-01-02T08:51:22.417Z,12384
2017-01-02T08:52:22.413Z,14836
2017-01-02T08:53:22.384Z,16352
2017-01-02T08:54:22.376Z,16800
2017-01-02T08:55:22.343Z,16640
2017-01-02T08:56:22.336Z,16640
2017-01-02T08:57:22.298Z,16768
2017-01-02T08:58:22.286Z,16928
2017-01-02T08:59:22.280Z,17152
2017-01-02T09:00:22.245Z,18144
2017-01-02T09:01:22.223Z,18624
2017-01-02T09:02:22.193Z,19200
2017-01-02T09:03:22.180Z,18880
2017-01-02T09:04:22.176Z,18464
2017-01-02T09:05:22.148Z,18176
2017-01-02T09:06:22.128Z,18944
2017-01-02T09:07:22.093Z,20480
2017-01-02T09:08:22.072Z,20672
2017-01-02T09:09:22.053Z,21664
2017-01-02T09:10:22.025Z,22176
2017-01-02T09:11:22.020Z,22528
2017-01-02T09:12:21.996Z,23424
2017-01-02T09:13:21.995Z,24608
2017-01-02T09:14:21.953Z,25376
2017-01-02T09:15:21.919Z,25600
2017-01-02T09:16:21.912Z,26048
2017-01-02T09:17:21.900Z,25088
2017-01-02T09:18:21.902Z,24992
2017-01-02T09:19:21.856Z,24896
2017-01-02T09:20:21.835Z,24448
2017-01-02T09:21:21.818Z,24128
2017-01-02T09:22:21.796Z,22944
2017-01-02T09:23:21.772Z,21536
2017-01-02T09:24:21.753Z,21504
2017-01-02T09:25:21.724Z,20672
2017-01-02T09:26:21.713Z,19904
2017-01-02T09:27:21.694Z,19008
2017-01-02T09:28:21.677Z,16992
2017-01-02T09:29:21.652Z,18912
2017-01-02T09:30:21.632Z,21120
2017-01-02T09:31:21.610Z,23968
2017-01-02T09:32:21.601Z,26272
2017-01-02T09:33:21.577Z,28608
2017-01-02T09:34:21.548Z,30048
2017-01-02T09:35:21.524Z,29856
2017-01-02T09:36:21.520Z,28864
2017-01-02T09:37:21.490Z,27488
2017-01-02T09:38:21.473Z,26624
2017-01-02T09:39:21.442Z,26816
2017-01-02T09:40:21.422Z,27392
2017-01-02T09:41:21.394Z,27552
2017-01-02T09:42:21.395Z,27264
2017-01-02T09:43:21.361Z,25728
2017-01-02T09:44:21.350Z,24224
2017-01-02T09:45:21.317Z,24992
2017-01-02T09:46:21.302Z,27552
2017-01-02T09:47:21.291Z,27776
2017-01-02T09:48:21.268Z,27488
2017-01-02T09:49:21.245Z,31168
2017-01-02T09:50:21.217Z,34336
2017-01-02T09:51:21.198Z,34368
2017-01-02T09:52:21.177Z,35040
2017-01-02T09:53:21.161Z,37248
2017-01-02T09:54:21.137Z,37696
2017-01-02T09:55:21.126Z,36832
2017-01-02T09:56:21.089Z,35232
2017-01-02T09:57:21.096Z,36192
2017-01-02T09:58:21.060Z,35968
2017-01-02T09:59:21.051Z,35552
2017-01-02T10:00:21.027Z,34944
2017-01-02T10:01:21.007Z,29792
2017-01-02T10:02:20.993Z,22080
2017-01-02T10:03:20.959Z,20480
2017-01-02T10:04:20.954Z,21280
2017-01-02T10:05:20.913Z,21920
2017-01-02T10:06:20.905Z,22272
2017-01-02T10:07:20.897Z,22496
2017-01-02T10:08:20.864Z,22816
2017-01-02T10:09:20.841Z,24416
2017-01-02T10:10:20.817Z,25312
2017-01-02T10:11:20.803Z,26112
2017-01-02T10:12:20.828Z,27968
2017-01-02T10:13:20.777Z,28576
2017-01-02T10:14:20.747Z,28480
2017-01-02T10:15:20.735Z,29248
2017-01-02T10:16:20.724Z,31072
2017-01-02T10:17:20.713Z,31616
2017-01-02T10:18:20.668Z,32608
2017-01-02T10:19:20.651Z,32704
2017-01-02T10:20:20.634Z,33792
2017-01-02T10:21:20.628Z,34112
2017-01-02T10:22:20.601Z,35328
2017-01-02T10:23:20.578Z,35392
2017-01-02T10:24:20.563Z,36480
2017-01-02T10:25:20.562Z,38368
2017-01-02T10:26:20.533Z,37376
2017-01-02T10:27:20.514Z,36512
2017-01-02T10:28:20.488Z,37824
2017-01-02T10:29:20.449Z,39072
2017-01-02T10:30:20.448Z,39008
2017-01-02T10:31:20.443Z,38656
2017-01-02T10:32:20.406Z,38656
2017-01-02T10:33:20.372Z,38240
2017-01-02T10:34:20.365Z,36512
2017-01-02T10:35:20.358Z,34592
2017-01-02T10:36:20.323Z,36384
2017-01-02T10:37:20.306Z,39200
2017-01-02T10:38:20.284Z,40384
2017-01-02T10:39:20.275Z,38048
2017-01-02T10:40:20.258Z,37600
2017-01-02T10:41:20.239Z,38240
2017-01-02T10:42:20.218Z,36896
2017-01-02T10:43:20.187Z,35200
2017-01-02T10:44:20.178Z,33440
2017-01-02T10:45:20.162Z,32704
2017-01-02T10:46:20.143Z,29632
2017-01-02T10:47:20.126Z,27712
2017-01-02T10:48:20.117Z,27584
2017-01-02T10:49:20.081Z,29664
2017-01-02T10:50:20.078Z,26848
2017-01-02T10:51:20.042Z,26560
2017-01-02T10:52:20.033Z,28288
2017-01-02T10:53:20.012Z,27168
2017-01-02T10:54:19.991Z,25952
2017-01-02T10:55:19.971Z,24992
2017-01-02T10:56:19.969Z,26944
2017-01-02T10:57:19.933Z,28704
2017-01-02T10:58:20.114Z,29824
2017-01-02T10:59:20.096Z,30112
2017-01-02T11:00:20.081Z,28128
2017-01-02T11:01:19.852Z,29376
2017-01-02T11:02:19.826Z,30272
2017-01-02T11:03:19.826Z,30624
2017-01-02T11:04:19.803Z,31264
2017-01-02T11:05:19.789Z,32096
2017-01-02T11:06:19.766Z,30560
2017-01-02T11:07:19.759Z,29088
2017-01-02T11:08:19.751Z,28448
2017-01-02T11:09:19.707Z,28704
2017-01-02T11:10:19.699Z,27392
2017-01-02T11:11:19.667Z,23456
2017-01-02T11:12:19.653Z,24992
2017-01-02T11:13:19.636Z,25120
2017-01-02T11:14:19.613Z,24480
2017-01-02T11:15:19.598Z,26368
2017-01-02T11:16:19.575Z,27712
2017-01-02T11:17:19.557Z,27168
2017-01-02T11:18:19.554Z,28288
2017-01-02T11:19:19.516Z,30048
2017-01-02T11:20:19.486Z,28224
2017-01-02T11:21:19.475Z,28416
2017-01-02T11:22:19.463Z,28448
2017-01-02T11:23:19.432Z,26912
2017-01-02T11:24:19.419Z,23392
2017-01-02T11:25:19.405Z,24544
2017-01-02T11:26:19.370Z,24160
2017-01-02T11:27:19.566Z,24736
2017-01-02T11:28:34.248Z,24800
2017-01-02T11:29:19.325Z,26144
2017-01-02T11:30:19.302Z,25280
2017-01-02T11:31:19.275Z,28224
2017-01-02T11:32:19.256Z,30048
2017-01-02T11:33:19.242Z,28864
2017-01-02T11:34:19.204Z,28608
2017-01-02T11:35:19.187Z,28960
2017-01-02T11:36:19.172Z,29056
2017-01-02T11:37:19.161Z,26016
2017-01-02T11:38:19.130Z,26016
2017-01-02T11:39:19.119Z,25568
2017-01-02T11:40:19.100Z,24448
2017-01-02T11:41:19.080Z,26560
2017-01-02T11:42:19.056Z,26784
2017-01-02T11:43:19.030Z,24096
2017-01-02T11:44:18.997Z,26144
2017-01-02T11:45:18.990Z,23648
2017-01-02T11:46:18.975Z,22464
2017-01-02T11:47:18.979Z,24128
2017-01-02T11:48:18.938Z,26688
2017-01-02T11:49:18.911Z,30048
2017-01-02T11:50:18.889Z,31744
2017-01-02T11:51:18.871Z,34528
2017-01-02T11:52:18.854Z,38784
2017-01-02T11:53:18.818Z,40608
2017-01-02T11:54:19.021Z,39232
2017-01-02T11:55:18.793Z,36032
2017-01-02T11:56:18.756Z,40928
2017-01-02T11:57:18.731Z,39296
2017-01-02T11:58:18.719Z,42720
2017-01-02T11:59:18.694Z,40256
2017-01-02T12:00:18.712Z,38176
2017-01-02T12:01:18.655Z,38336
2017-01-02T12:02:18.640Z,38880
2017-01-02T12:03:18.618Z,40608
2017-01-02T12:04:18.603Z,40544
2017-01-02T12:05:18.572Z,39968
2017-01-02T12:06:18.565Z,38400
2017-01-02T12:07:18.538Z,34176
2017-01-02T12:08:18.511Z,31232
2017-01-02T12:09:18.499Z,27232
2017-01-02T12:10:18.475Z,25312
2017-01-02T12:11:18.444Z,24160
2017-01-02T12:12:18.436Z,20160
2017-01-02T12:13:18.410Z,18336
2017-01-02T12:14:18.377Z,16608
2017-01-02T12:15:18.360Z,16544
2017-01-02T12:16:18.360Z,15044
2017-01-02T12:17:18.332Z,17248
2017-01-02T12:18:18.316Z,23424
2017-01-02T12:19:18.288Z,16864
2017-01-02T12:20:18.278Z,20480
2017-01-02T12:21:18.445Z,24480
2017-01-02T12:22:18.232Z,24640
2017-01-02T12:23:18.202Z,24896
2017-01-02T12:24:18.175Z,22560
2017-01-02T12:25:18.540Z,20000
2017-01-02T12:26:18.134Z,20320
2017-01-02T12:27:18.118Z,20672
2017-01-02T12:28:18.100Z,20320
2017-01-02T12:29:18.079Z,20160
2017-01-02T12:30:18.053Z,20768
2017-01-02T12:31:18.032Z,22208
2017-01-02T12:32:18.010Z,23040
2017-01-02T12:33:17.978Z,25216
2017-01-02T12:34:17.968Z,29088
2017-01-02T12:35:17.961Z,32000
2017-01-02T12:36:17.931Z,29920
2017-01-02T12:37:17.902Z,32288
2017-01-02T12:38:17.896Z,34976
2017-01-02T12:39:17.872Z,35456
2017-01-02T12:40:17.834Z,27680
2017-01-02T12:41:17.826Z,24928
2017-01-02T12:42:17.800Z,25856
2017-01-02T12:43:17.774Z,23136
2017-01-02T12:44:17.754Z,20320
2017-01-02T12:45:17.748Z,16608
2017-01-02T12:46:17.716Z,15144
2017-01-02T12:47:17.692Z,13248
2017-01-02T12:48:17.883Z,13512
2017-01-02T12:49:17.665Z,13784
2017-01-02T12:50:18.023Z,12028
2017-01-02T12:51:17.637Z,12176
2017-01-02T12:52:17.601Z,11724
2017-01-02T12:53:17.589Z,10912
2017-01-02T12:54:17.543Z,11472
2017-01-02T12:55:17.539Z,11952
2017-01-02T12:56:17.512Z,12676
2017-01-02T12:57:17.488Z,14480
2017-01-02T12:58:17.471Z,15564
2017-01-02T12:59:17.424Z,15404
2017-01-02T13:00:17.415Z,17120
2017-01-02T13:01:17.395Z,18464
2017-01-02T13:02:17.370Z,16352
2017-01-02T13:03:17.351Z,15264
2017-01-02T13:04:17.326Z,14384
2017-01-02T13:05:17.296Z,12032
2017-01-02T13:06:17.282Z,12228
2017-01-02T13:07:17.262Z,11392
2017-01-02T13:08:17.252Z,11404
2017-01-02T13:09:17.223Z,11032
2017-01-02T13:10:17.195Z,11068
2017-01-02T13:11:17.155Z,11068
2017-01-02T13:12:17.140Z,10328
2017-01-02T13:13:17.119Z,11112
2017-01-02T13:14:17.101Z,11816
2017-01-02T13:15:17.082Z,15968
2017-01-02T13:16:17.053Z,18528
2017-01-02T13:17:17.025Z,16704
2017-01-02T13:18:17.001Z,12216
2017-01-02T13:19:16.991Z,11096
2017-01-02T13:20:16.951Z,11076
2017-01-02T13:21:16.944Z,11328
2017-01-02T13:22:16.919Z,11612
2017-01-02T13:23:16.882Z,12108
2017-01-02T13:24:16.870Z,12536
2017-01-02T13:25:16.847Z,12816
2017-01-02T13:26:16.820Z,12836
2017-01-02T13:27:16.783Z,12768
2017-01-02T13:28:16.753Z,12728
2017-01-02T13:29:16.743Z,12668
2017-01-02T13:30:16.728Z,12696
2017-01-02T13:31:16.696Z,12644
2017-01-02T13:32:16.661Z,12456
2017-01-02T13:33:16.645Z,12244
2017-01-02T13:34:16.625Z,12236
2017-01-02T13:35:16.595Z,12216
2017-01-02T13:36:16.574Z,12096
2017-01-02T13:37:16.567Z,11812
2017-01-02T13:38:16.527Z,11600
2017-01-02T13:39:16.509Z,11452
2017-01-02T13:40:16.479Z,11304
2017-01-02T13:41:16.462Z,11152
2017-01-02T13:42:16.465Z,11116
2017-01-02T13:43:16.419Z,11280
2017-01-02T13:44:16.380Z,11500
2017-01-02T13:45:16.355Z,11700
2017-01-02T13:46:16.341Z,11800
2017-01-02T13:47:16.319Z,11912
2017-01-02T13:48:16.291Z,11904